sensor_id;sensor_type;location;lat;lon;timestamp;P1;durP1;ratioP1;P2;durP2;ratioP2
50803;SDS011;37205;51.434;6.756;2022-08-19T00:00:19;10.05;;;8.30;;
50803;SDS011;37205;51.434;6.756;2022-08-19T00:02:45;9.50;;;7.93;;
50803;SDS011;37205;51.434;6.756;2022-08-19T00:05:12;9.80;;;8.60;;
50803;SDS011;37205;51.434;6.756;2022-08-19T00:07:39;10.07;;;8.43;;
50803;SDS011;37205;51.434;6.756;2022-08-19T00:10:05;11.02;;;8.90;;
50803;SDS011;37205;51.434;6.756;2022-08-19T00:12:33;9.55;;;8.35;;
50803;SDS011;37205;51.434;6.756;2022-08-19T00:14:59;9.88;;;8.88;;
50803;SDS011;37205;51.434;6.756;2022-08-19T00:17:24;9.60;;;8.60;;
50803;SDS011;37205;51.434;6.756;2022-08-19T00:19:50;10.57;;;9.13;;
50803;SDS011;37205;51.434;6.756;2022-08-19T00:22:15;11.73;;;8.80;;
50803;SDS011;37205;51.434;6.756;2022-08-19T00:24:43;9.88;;;8.80;;
50803;SDS011;37205;51.434;6.756;2022-08-19T00:27:10;9.18;;;8.18;;
50803;SDS011;37205;51.434;6.756;2022-08-19T00:29:36;9.95;;;8.75;;
50803;SDS011;37205;51.434;6.756;2022-08-19T00:32:02;11.38;;;8.88;;
50803;SDS011;37205;51.434;6.756;2022-08-19T00:34:29;9.43;;;8.52;;
50803;SDS011;37205;51.434;6.756;2022-08-19T00:36:55;10.52;;;9.30;;
50803;SDS011;37205;51.434;6.756;2022-08-19T00:39:21;11.73;;;9.07;;
50803;SDS011;37205;51.434;6.756;2022-08-19T00:41:47;11.95;;;9.40;;
50803;SDS011;37205;51.434;6.756;2022-08-19T00:44:15;10.73;;;8.80;;
50803;SDS011;37205;51.434;6.756;2022-08-19T00:46:42;12.88;;;9.23;;
50803;SDS011;37205;51.434;6.756;2022-08-19T00:49:12;9.80;;;8.85;;
50803;SDS011;37205;51.434;6.756;2022-08-19T00:51:42;11.38;;;8.70;;
50803;SDS011;37205;51.434;6.756;2022-08-19T00:54:11;9.77;;;8.75;;
50803;SDS011;37205;51.434;6.756;2022-08-19T00:56:37;9.80;;;8.80;;
50803;SDS011;37205;51.434;6.756;2022-08-19T00:59:03;9.95;;;8.85;;
50803;SDS011;37205;51.434;6.756;2022-08-19T01:01:35;9.45;;;8.40;;
50803;SDS011;37205;51.434;6.756;2022-08-19T01:04:01;10.00;;;8.80;;
50803;SDS011;37205;51.434;6.756;2022-08-19T01:06:27;12.85;;;9.07;;
50803;SDS011;37205;51.434;6.756;2022-08-19T01:08:53;10.25;;;9.10;;
50803;SDS011;37205;51.434;6.756;2022-08-19T01:11:19;9.55;;;8.48;;
50803;SDS011;37205;51.434;6.756;2022-08-19T01:13:46;10.40;;;8.52;;
50803;SDS011;37205;51.434;6.756;2022-08-19T01:16:11;9.57;;;8.57;;
50803;SDS011;37205;51.434;6.756;2022-08-19T01:18:39;10.07;;;9.00;;
50803;SDS011;37205;51.434;6.756;2022-08-19T01:21:11;9.50;;;8.48;;
50803;SDS011;37205;51.434;6.756;2022-08-19T01:23:43;9.27;;;8.38;;
50803;SDS011;37205;51.434;6.756;2022-08-19T01:26:11;8.82;;;7.53;;
50803;SDS011;37205;51.434;6.756;2022-08-19T01:28:40;10.55;;;8.27;;
50803;SDS011;37205;51.434;6.756;2022-08-19T01:31:08;8.55;;;7.60;;
50803;SDS011;37205;51.434;6.756;2022-08-19T01:33:36;7.85;;;7.07;;
50803;SDS011;37205;51.434;6.756;2022-08-19T01:36:03;8.50;;;7.60;;
50803;SDS011;37205;51.434;6.756;2022-08-19T01:38:34;10.90;;;8.10;;
50803;SDS011;37205;51.434;6.756;2022-08-19T01:41:02;9.85;;;7.57;;
50803;SDS011;37205;51.434;6.756;2022-08-19T01:43:27;8.73;;;7.93;;
50803;SDS011;37205;51.434;6.756;2022-08-19T01:45:53;8.70;;;7.80;;
50803;SDS011;37205;51.434;6.756;2022-08-19T01:48:19;9.82;;;7.88;;
50803;SDS011;37205;51.434;6.756;2022-08-19T01:50:45;9.15;;;7.72;;
50803;SDS011;37205;51.434;6.756;2022-08-19T01:53:10;9.10;;;8.10;;
50803;SDS011;37205;51.434;6.756;2022-08-19T01:55:38;9.73;;;8.68;;
50803;SDS011;37205;51.434;6.756;2022-08-19T01:58:05;9.98;;;8.70;;
50803;SDS011;37205;51.434;6.756;2022-08-19T02:00:32;9.35;;;8.45;;
50803;SDS011;37205;51.434;6.756;2022-08-19T02:02:58;9.38;;;8.38;;
50803;SDS011;37205;51.434;6.756;2022-08-19T02:05:25;10.45;;;9.35;;
50803;SDS011;37205;51.434;6.756;2022-08-19T02:07:52;9.73;;;8.48;;
50803;SDS011;37205;51.434;6.756;2022-08-19T02:10:20;9.55;;;8.55;;
50803;SDS011;37205;51.434;6.756;2022-08-19T02:12:47;10.48;;;9.40;;
50803;SDS011;37205;51.434;6.756;2022-08-19T02:15:14;10.63;;;8.77;;
50803;SDS011;37205;51.434;6.756;2022-08-19T02:17:40;9.80;;;8.65;;
50803;SDS011;37205;51.434;6.756;2022-08-19T02:20:07;10.00;;;9.00;;
50803;SDS011;37205;51.434;6.756;2022-08-19T02:22:34;11.23;;;10.05;;
50803;SDS011;37205;51.434;6.756;2022-08-19T02:25:00;9.80;;;8.90;;
50803;SDS011;37205;51.434;6.756;2022-08-19T02:27:26;10.20;;;9.20;;
50803;SDS011;37205;51.434;6.756;2022-08-19T02:29:52;10.05;;;9.07;;
50803;SDS011;37205;51.434;6.756;2022-08-19T02:32:18;11.10;;;9.10;;
50803;SDS011;37205;51.434;6.756;2022-08-19T02:34:45;9.65;;;8.65;;
50803;SDS011;37205;51.434;6.756;2022-08-19T02:37:11;11.20;;;9.90;;
50803;SDS011;37205;51.434;6.756;2022-08-19T02:39:56;10.63;;;9.48;;
50803;SDS011;37205;51.434;6.756;2022-08-19T02:42:22;13.73;;;11.13;;
50803;SDS011;37205;51.434;6.756;2022-08-19T02:44:48;12.20;;;10.60;;
50803;SDS011;37205;51.434;6.756;2022-08-19T02:47:14;14.52;;;13.10;;
50803;SDS011;37205;51.434;6.756;2022-08-19T02:49:40;13.57;;;12.27;;
50803;SDS011;37205;51.434;6.756;2022-08-19T02:52:05;17.25;;;15.55;;
50803;SDS011;37205;51.434;6.756;2022-08-19T02:54:31;16.45;;;13.88;;
50803;SDS011;37205;51.434;6.756;2022-08-19T02:56:57;16.52;;;12.90;;
50803;SDS011;37205;51.434;6.756;2022-08-19T02:59:23;13.57;;;11.93;;
50803;SDS011;37205;51.434;6.756;2022-08-19T03:01:49;16.80;;;13.98;;
50803;SDS011;37205;51.434;6.756;2022-08-19T03:04:15;20.65;;;18.55;;
50803;SDS011;37205;51.434;6.756;2022-08-19T03:06:42;27.90;;;25.42;;
50803;SDS011;37205;51.434;6.756;2022-08-19T03:09:10;23.60;;;21.35;;
50803;SDS011;37205;51.434;6.756;2022-08-19T03:11:37;20.80;;;18.80;;
50803;SDS011;37205;51.434;6.756;2022-08-19T03:14:04;19.63;;;17.73;;
50803;SDS011;37205;51.434;6.756;2022-08-19T03:16:32;17.42;;;15.60;;
50803;SDS011;37205;51.434;6.756;2022-08-19T03:18:59;16.25;;;14.27;;
50803;SDS011;37205;51.434;6.756;2022-08-19T03:21:27;15.52;;;13.18;;
50803;SDS011;37205;51.434;6.756;2022-08-19T03:23:55;13.88;;;12.40;;
50803;SDS011;37205;51.434;6.756;2022-08-19T03:26:24;14.75;;;13.15;;
50803;SDS011;37205;51.434;6.756;2022-08-19T03:28:50;18.92;;;16.83;;
50803;SDS011;37205;51.434;6.756;2022-08-19T03:31:17;24.58;;;22.05;;
50803;SDS011;37205;51.434;6.756;2022-08-19T03:33:46;26.45;;;23.67;;
50803;SDS011;37205;51.434;6.756;2022-08-19T03:36:13;28.80;;;26.10;;
50803;SDS011;37205;51.434;6.756;2022-08-19T03:38:42;28.35;;;25.55;;
50803;SDS011;37205;51.434;6.756;2022-08-19T03:41:12;28.23;;;25.55;;
50803;SDS011;37205;51.434;6.756;2022-08-19T03:43:40;22.58;;;20.48;;
50803;SDS011;37205;51.434;6.756;2022-08-19T03:46:13;18.75;;;16.85;;
50803;SDS011;37205;51.434;6.756;2022-08-19T03:48:41;18.15;;;16.23;;
50803;SDS011;37205;51.434;6.756;2022-08-19T03:51:15;16.92;;;15.13;;
50803;SDS011;37205;51.434;6.756;2022-08-19T03:53:44;18.17;;;15.30;;
50803;SDS011;37205;51.434;6.756;2022-08-19T03:56:09;15.82;;;14.23;;
50803;SDS011;37205;51.434;6.756;2022-08-19T03:58:35;18.88;;;14.95;;
50803;SDS011;37205;51.434;6.756;2022-08-19T04:01:02;16.83;;;15.13;;
50803;SDS011;37205;51.434;6.756;2022-08-19T04:03:36;16.52;;;14.82;;
50803;SDS011;37205;51.434;6.756;2022-08-19T04:08:37;20.67;;;18.63;;
50803;SDS011;37205;51.434;6.756;2022-08-19T04:11:08;22.92;;;20.38;;
50803;SDS011;37205;51.434;6.756;2022-08-19T04:13:35;21.92;;;18.00;;
50803;SDS011;37205;51.434;6.756;2022-08-19T04:16:01;21.52;;;19.27;;
50803;SDS011;37205;51.434;6.756;2022-08-19T04:18:29;22.65;;;20.35;;
50803;SDS011;37205;51.434;6.756;2022-08-19T04:20:55;26.13;;;19.30;;
50803;SDS011;37205;51.434;6.756;2022-08-19T04:23:22;22.25;;;19.90;;
50803;SDS011;37205;51.434;6.756;2022-08-19T04:25:47;22.98;;;20.40;;
50803;SDS011;37205;51.434;6.756;2022-08-19T04:28:13;22.33;;;19.73;;
50803;SDS011;37205;51.434;6.756;2022-08-19T04:30:46;22.13;;;19.98;;
50803;SDS011;37205;51.434;6.756;2022-08-19T04:33:14;23.15;;;20.65;;
50803;SDS011;37205;51.434;6.756;2022-08-19T04:35:42;23.83;;;21.17;;
50803;SDS011;37205;51.434;6.756;2022-08-19T04:38:09;35.03;;;24.02;;
50803;SDS011;37205;51.434;6.756;2022-08-19T04:40:42;32.60;;;24.90;;
50803;SDS011;37205;51.434;6.756;2022-08-19T04:43:28;29.83;;;24.57;;
50803;SDS011;37205;51.434;6.756;2022-08-19T04:45:54;28.50;;;25.02;;
50803;SDS011;37205;51.434;6.756;2022-08-19T04:48:20;33.60;;;26.48;;
50803;SDS011;37205;51.434;6.756;2022-08-19T04:50:50;29.70;;;25.00;;
50803;SDS011;37205;51.434;6.756;2022-08-19T04:53:32;31.58;;;27.05;;
50803;SDS011;37205;51.434;6.756;2022-08-19T04:56:02;31.23;;;27.38;;
50803;SDS011;37205;51.434;6.756;2022-08-19T04:58:40;29.52;;;26.33;;
50803;SDS011;37205;51.434;6.756;2022-08-19T05:01:07;31.73;;;25.77;;
50803;SDS011;37205;51.434;6.756;2022-08-19T05:03:35;34.35;;;25.10;;
50803;SDS011;37205;51.434;6.756;2022-08-19T05:06:08;32.78;;;26.90;;
50803;SDS011;37205;51.434;6.756;2022-08-19T05:08:36;34.42;;;27.08;;
50803;SDS011;37205;51.434;6.756;2022-08-19T05:11:11;37.25;;;28.67;;
50803;SDS011;37205;51.434;6.756;2022-08-19T05:13:39;32.70;;;29.02;;
50803;SDS011;37205;51.434;6.756;2022-08-19T05:16:05;36.17;;;28.27;;
50803;SDS011;37205;51.434;6.756;2022-08-19T05:18:31;26.90;;;22.25;;
50803;SDS011;37205;51.434;6.756;2022-08-19T05:21:16;22.15;;;19.77;;
50803;SDS011;37205;51.434;6.756;2022-08-19T05:24:04;22.38;;;19.42;;
50803;SDS011;37205;51.434;6.756;2022-08-19T05:26:34;31.50;;;27.90;;
50803;SDS011;37205;51.434;6.756;2022-08-19T05:29:00;36.53;;;32.42;;
50803;SDS011;37205;51.434;6.756;2022-08-19T05:31:26;43.63;;;34.17;;
50803;SDS011;37205;51.434;6.756;2022-08-19T05:33:51;38.38;;;34.22;;
50803;SDS011;37205;51.434;6.756;2022-08-19T05:36:17;40.67;;;36.08;;
50803;SDS011;37205;51.434;6.756;2022-08-19T05:38:44;45.22;;;36.80;;
50803;SDS011;37205;51.434;6.756;2022-08-19T05:41:11;43.67;;;37.65;;
50803;SDS011;37205;51.434;6.756;2022-08-19T05:43:38;43.95;;;38.25;;
50803;SDS011;37205;51.434;6.756;2022-08-19T05:46:04;45.42;;;39.10;;
50803;SDS011;37205;51.434;6.756;2022-08-19T05:48:31;45.72;;;40.90;;
50803;SDS011;37205;51.434;6.756;2022-08-19T05:50:57;52.03;;;45.35;;
50803;SDS011;37205;51.434;6.756;2022-08-19T05:53:24;55.78;;;45.72;;
50803;SDS011;37205;51.434;6.756;2022-08-19T05:55:50;54.40;;;46.42;;
50803;SDS011;37205;51.434;6.756;2022-08-19T05:58:15;55.33;;;46.30;;
50803;SDS011;37205;51.434;6.756;2022-08-19T06:00:42;52.67;;;45.08;;
50803;SDS011;37205;51.434;6.756;2022-08-19T06:03:09;51.25;;;44.78;;
50803;SDS011;37205;51.434;6.756;2022-08-19T06:05:35;53.60;;;45.92;;
50803;SDS011;37205;51.434;6.756;2022-08-19T06:08:00;49.95;;;44.17;;
50803;SDS011;37205;51.434;6.756;2022-08-19T06:10:26;54.33;;;46.95;;
50803;SDS011;37205;51.434;6.756;2022-08-19T06:12:53;48.20;;;43.03;;
50803;SDS011;37205;51.434;6.756;2022-08-19T06:15:18;47.63;;;41.60;;
50803;SDS011;37205;51.434;6.756;2022-08-19T06:17:44;47.50;;;42.40;;
50803;SDS011;37205;51.434;6.756;2022-08-19T06:20:11;49.42;;;42.92;;
50803;SDS011;37205;51.434;6.756;2022-08-19T06:22:39;47.58;;;42.33;;
50803;SDS011;37205;51.434;6.756;2022-08-19T06:25:06;47.83;;;42.70;;
50803;SDS011;37205;51.434;6.756;2022-08-19T06:27:34;49.08;;;42.40;;
50803;SDS011;37205;51.434;6.756;2022-08-19T06:30:00;50.08;;;44.53;;
50803;SDS011;37205;51.434;6.756;2022-08-19T06:32:27;53.58;;;46.00;;
50803;SDS011;37205;51.434;6.756;2022-08-19T06:34:52;52.85;;;47.30;;
50803;SDS011;37205;51.434;6.756;2022-08-19T06:37:18;54.13;;;47.70;;
50803;SDS011;37205;51.434;6.756;2022-08-19T06:39:43;56.95;;;48.95;;
50803;SDS011;37205;51.434;6.756;2022-08-19T06:42:10;55.85;;;49.83;;
50803;SDS011;37205;51.434;6.756;2022-08-19T06:44:39;57.22;;;51.03;;
50803;SDS011;37205;51.434;6.756;2022-08-19T06:47:07;57.70;;;51.20;;
50803;SDS011;37205;51.434;6.756;2022-08-19T06:49:35;55.90;;;50.03;;
50803;SDS011;37205;51.434;6.756;2022-08-19T06:52:01;56.90;;;50.80;;
50803;SDS011;37205;51.434;6.756;2022-08-19T06:54:28;57.40;;;51.20;;
50803;SDS011;37205;51.434;6.756;2022-08-19T06:56:55;58.78;;;52.35;;
50803;SDS011;37205;51.434;6.756;2022-08-19T06:59:23;56.45;;;49.75;;
50803;SDS011;37205;51.434;6.756;2022-08-19T07:01:53;58.83;;;52.42;;
50803;SDS011;37205;51.434;6.756;2022-08-19T07:04:21;57.95;;;51.97;;
50803;SDS011;37205;51.434;6.756;2022-08-19T07:06:49;57.22;;;51.17;;
50803;SDS011;37205;51.434;6.756;2022-08-19T07:09:15;61.38;;;54.75;;
50803;SDS011;37205;51.434;6.756;2022-08-19T07:11:49;58.95;;;50.33;;
50803;SDS011;37205;51.434;6.756;2022-08-19T07:14:18;57.40;;;49.72;;
50803;SDS011;37205;51.434;6.756;2022-08-19T07:16:45;56.83;;;50.83;;
50803;SDS011;37205;51.434;6.756;2022-08-19T07:19:13;55.25;;;49.30;;
50803;SDS011;37205;51.434;6.756;2022-08-19T07:21:39;59.40;;;47.75;;
50803;SDS011;37205;51.434;6.756;2022-08-19T07:24:06;53.63;;;47.80;;
50803;SDS011;37205;51.434;6.756;2022-08-19T07:26:33;55.50;;;49.63;;
50803;SDS011;37205;51.434;6.756;2022-08-19T07:29:04;54.53;;;48.53;;
50803;SDS011;37205;51.434;6.756;2022-08-19T07:31:30;57.35;;;49.80;;
50803;SDS011;37205;51.434;6.756;2022-08-19T07:34:01;51.42;;;45.83;;
50803;SDS011;37205;51.434;6.756;2022-08-19T07:36:28;52.00;;;46.50;;
50803;SDS011;37205;51.434;6.756;2022-08-19T07:38:56;49.65;;;44.35;;
50803;SDS011;37205;51.434;6.756;2022-08-19T07:41:23;48.88;;;43.67;;
50803;SDS011;37205;51.434;6.756;2022-08-19T07:43:50;47.08;;;41.28;;
50803;SDS011;37205;51.434;6.756;2022-08-19T07:46:17;50.60;;;40.88;;
50803;SDS011;37205;51.434;6.756;2022-08-19T07:48:51;45.33;;;40.47;;
50803;SDS011;37205;51.434;6.756;2022-08-19T07:51:32;47.90;;;40.88;;
50803;SDS011;37205;51.434;6.756;2022-08-19T07:53:58;43.70;;;39.03;;
50803;SDS011;37205;51.434;6.756;2022-08-19T07:56:24;42.83;;;38.05;;
50803;SDS011;37205;51.434;6.756;2022-08-19T07:58:51;43.35;;;38.65;;
50803;SDS011;37205;51.434;6.756;2022-08-19T08:01:19;41.90;;;37.30;;
50803;SDS011;37205;51.434;6.756;2022-08-19T08:03:47;40.13;;;35.67;;
50803;SDS011;37205;51.434;6.756;2022-08-19T08:06:33;39.25;;;34.45;;
50803;SDS011;37205;51.434;6.756;2022-08-19T08:09:19;44.33;;;36.22;;
50803;SDS011;37205;51.434;6.756;2022-08-19T08:11:52;40.00;;;33.10;;
50803;SDS011;37205;51.434;6.756;2022-08-19T08:14:23;32.72;;;29.20;;
50803;SDS011;37205;51.434;6.756;2022-08-19T08:16:59;30.58;;;27.27;;
50803;SDS011;37205;51.434;6.756;2022-08-19T08:19:26;29.38;;;23.88;;
50803;SDS011;37205;51.434;6.756;2022-08-19T08:21:53;27.58;;;23.67;;
50803;SDS011;37205;51.434;6.756;2022-08-19T08:24:21;26.35;;;23.33;;
50803;SDS011;37205;51.434;6.756;2022-08-19T08:26:46;27.83;;;23.25;;
50803;SDS011;37205;51.434;6.756;2022-08-19T08:29:12;27.63;;;24.60;;
50803;SDS011;37205;51.434;6.756;2022-08-19T08:31:39;29.88;;;24.85;;
50803;SDS011;37205;51.434;6.756;2022-08-19T08:34:07;30.63;;;26.00;;
50803;SDS011;37205;51.434;6.756;2022-08-19T08:36:35;30.83;;;25.83;;
50803;SDS011;37205;51.434;6.756;2022-08-19T08:39:05;32.40;;;27.98;;
50803;SDS011;37205;51.434;6.756;2022-08-19T08:41:34;35.70;;;30.20;;
50803;SDS011;37205;51.434;6.756;2022-08-19T08:44:27;31.63;;;27.10;;
50803;SDS011;37205;51.434;6.756;2022-08-19T08:47:06;30.40;;;27.20;;
50803;SDS011;37205;51.434;6.756;2022-08-19T08:52:26;36.17;;;29.88;;
50803;SDS011;37205;51.434;6.756;2022-08-19T08:54:57;29.35;;;26.13;;
50803;SDS011;37205;51.434;6.756;2022-08-19T08:57:32;27.80;;;24.77;;
50803;SDS011;37205;51.434;6.756;2022-08-19T09:00:04;27.65;;;24.73;;
50803;SDS011;37205;51.434;6.756;2022-08-19T09:02:32;24.90;;;22.35;;
50803;SDS011;37205;51.434;6.756;2022-08-19T09:04:58;24.30;;;21.63;;
50803;SDS011;37205;51.434;6.756;2022-08-19T09:10:51;26.15;;;20.92;;
50803;SDS011;37205;51.434;6.756;2022-08-19T09:13:09;26.70;;;23.77;;
50803;SDS011;37205;51.434;6.756;2022-08-19T09:15:53;29.60;;;26.38;;
50803;SDS011;37205;51.434;6.756;2022-08-19T09:18:23;28.13;;;25.13;;
50803;SDS011;37205;51.434;6.756;2022-08-19T09:20:49;30.95;;;26.52;;
50803;SDS011;37205;51.434;6.756;2022-08-19T09:23:15;29.00;;;25.25;;
50803;SDS011;37205;51.434;6.756;2022-08-19T09:25:41;29.67;;;26.20;;
50803;SDS011;37205;51.434;6.756;2022-08-19T09:28:06;33.63;;;29.73;;
50803;SDS011;37205;51.434;6.756;2022-08-19T09:30:33;33.78;;;28.52;;
50803;SDS011;37205;51.434;6.756;2022-08-19T09:33:04;30.50;;;27.20;;
50803;SDS011;37205;51.434;6.756;2022-08-19T09:35:31;30.60;;;25.83;;
50803;SDS011;37205;51.434;6.756;2022-08-19T09:37:57;29.75;;;26.52;;
50803;SDS011;37205;51.434;6.756;2022-08-19T09:40:24;28.38;;;25.27;;
50803;SDS011;37205;51.434;6.756;2022-08-19T09:42:52;29.50;;;26.27;;
50803;SDS011;37205;51.434;6.756;2022-08-19T09:45:19;30.23;;;26.83;;
50803;SDS011;37205;51.434;6.756;2022-08-19T09:47:46;30.55;;;26.25;;
50803;SDS011;37205;51.434;6.756;2022-08-19T09:50:14;30.50;;;26.17;;
50803;SDS011;37205;51.434;6.756;2022-08-19T09:52:39;29.88;;;26.77;;
50803;SDS011;37205;51.434;6.756;2022-08-19T09:55:08;29.42;;;26.23;;
50803;SDS011;37205;51.434;6.756;2022-08-19T09:57:34;31.92;;;27.42;;
50803;SDS011;37205;51.434;6.756;2022-08-19T10:00:01;34.33;;;30.52;;
50803;SDS011;37205;51.434;6.756;2022-08-19T10:02:28;36.70;;;30.33;;
50803;SDS011;37205;51.434;6.756;2022-08-19T10:04:54;32.88;;;29.30;;
50803;SDS011;37205;51.434;6.756;2022-08-19T10:07:38;29.08;;;25.92;;
50803;SDS011;37205;51.434;6.756;2022-08-19T10:10:04;28.65;;;25.63;;
50803;SDS011;37205;51.434;6.756;2022-08-19T10:12:31;29.50;;;26.40;;
50803;SDS011;37205;51.434;6.756;2022-08-19T10:14:58;32.70;;;27.65;;
50803;SDS011;37205;51.434;6.756;2022-08-19T10:17:24;32.20;;;27.40;;
50803;SDS011;37205;51.434;6.756;2022-08-19T10:19:52;29.15;;;26.08;;
50803;SDS011;37205;51.434;6.756;2022-08-19T10:22:18;27.83;;;24.92;;
50803;SDS011;37205;51.434;6.756;2022-08-19T10:24:45;25.42;;;22.33;;
50803;SDS011;37205;51.434;6.756;2022-08-19T10:27:11;28.77;;;23.25;;
50803;SDS011;37205;51.434;6.756;2022-08-19T10:29:39;25.60;;;22.65;;
50803;SDS011;37205;51.434;6.756;2022-08-19T10:32:05;23.85;;;21.25;;
50803;SDS011;37205;51.434;6.756;2022-08-19T10:34:36;26.48;;;21.52;;
50803;SDS011;37205;51.434;6.756;2022-08-19T10:37:03;25.73;;;22.67;;
50803;SDS011;37205;51.434;6.756;2022-08-19T10:39:33;24.38;;;20.90;;
50803;SDS011;37205;51.434;6.756;2022-08-19T10:42:04;22.52;;;20.13;;
50803;SDS011;37205;51.434;6.756;2022-08-19T10:44:35;20.73;;;18.45;;
50803;SDS011;37205;51.434;6.756;2022-08-19T10:47:01;27.35;;;20.08;;
50803;SDS011;37205;51.434;6.756;2022-08-19T10:49:28;20.42;;;18.08;;
50803;SDS011;37205;51.434;6.756;2022-08-19T10:51:55;21.08;;;18.80;;
50803;SDS011;37205;51.434;6.756;2022-08-19T10:54:39;19.70;;;17.60;;
50803;SDS011;37205;51.434;6.756;2022-08-19T10:57:24;17.98;;;16.08;;
50803;SDS011;37205;51.434;6.756;2022-08-19T10:59:54;20.60;;;17.23;;
50803;SDS011;37205;51.434;6.756;2022-08-19T11:02:20;21.15;;;18.95;;
50803;SDS011;37205;51.434;6.756;2022-08-19T11:04:46;19.00;;;16.95;;
50803;SDS011;37205;51.434;6.756;2022-08-19T11:07:12;20.15;;;17.92;;
50803;SDS011;37205;51.434;6.756;2022-08-19T11:09:39;18.15;;;15.48;;
50803;SDS011;37205;51.434;6.756;2022-08-19T11:12:06;17.35;;;15.25;;
50803;SDS011;37205;51.434;6.756;2022-08-19T11:14:33;17.60;;;14.18;;
50803;SDS011;37205;51.434;6.756;2022-08-19T11:16:59;14.63;;;12.73;;
50803;SDS011;37205;51.434;6.756;2022-08-19T11:19:25;14.82;;;12.73;;
50803;SDS011;37205;51.434;6.756;2022-08-19T11:21:51;14.43;;;12.73;;
50803;SDS011;37205;51.434;6.756;2022-08-19T11:24:20;14.70;;;12.90;;
50803;SDS011;37205;51.434;6.756;2022-08-19T11:26:48;14.35;;;12.85;;
50803;SDS011;37205;51.434;6.756;2022-08-19T11:29:16;13.02;;;11.73;;
50803;SDS011;37205;51.434;6.756;2022-08-19T11:31:44;15.90;;;13.73;;
50803;SDS011;37205;51.434;6.756;2022-08-19T11:34:12;15.68;;;13.00;;
50803;SDS011;37205;51.434;6.756;2022-08-19T11:36:41;15.10;;;13.18;;
50803;SDS011;37205;51.434;6.756;2022-08-19T11:39:10;14.07;;;12.32;;
50803;SDS011;37205;51.434;6.756;2022-08-19T11:41:37;13.35;;;11.40;;
50803;SDS011;37205;51.434;6.756;2022-08-19T11:44:03;11.85;;;10.48;;
50803;SDS011;37205;51.434;6.756;2022-08-19T11:46:29;13.68;;;11.10;;
50803;SDS011;37205;51.434;6.756;2022-08-19T11:48:56;14.50;;;11.82;;
50803;SDS011;37205;51.434;6.756;2022-08-19T11:51:24;12.20;;;10.90;;
50803;SDS011;37205;51.434;6.756;2022-08-19T11:53:51;9.95;;;8.95;;
50803;SDS011;37205;51.434;6.756;2022-08-19T11:56:18;12.63;;;9.75;;
50803;SDS011;37205;51.434;6.756;2022-08-19T11:58:45;10.32;;;8.68;;
50803;SDS011;37205;51.434;6.756;2022-08-19T12:01:11;9.02;;;7.88;;
50803;SDS011;37205;51.434;6.756;2022-08-19T12:03:40;11.20;;;9.38;;
50803;SDS011;37205;51.434;6.756;2022-08-19T12:06:07;10.65;;;8.98;;
50803;SDS011;37205;51.434;6.756;2022-08-19T12:08:35;12.48;;;8.40;;
50803;SDS011;37205;51.434;6.756;2022-08-19T12:11:01;9.93;;;8.52;;
50803;SDS011;37205;51.434;6.756;2022-08-19T12:13:28;10.85;;;8.57;;
50803;SDS011;37205;51.434;6.756;2022-08-19T12:15:55;15.68;;;9.57;;
50803;SDS011;37205;51.434;6.756;2022-08-19T12:18:21;20.58;;;10.52;;
50803;SDS011;37205;51.434;6.756;2022-08-19T12:20:47;11.82;;;8.57;;
50803;SDS011;37205;51.434;6.756;2022-08-19T12:23:15;12.57;;;8.68;;
50803;SDS011;37205;51.434;6.756;2022-08-19T12:25:45;9.55;;;7.80;;
50803;SDS011;37205;51.434;6.756;2022-08-19T12:28:16;11.43;;;7.78;;
50803;SDS011;37205;51.434;6.756;2022-08-19T12:30:46;14.60;;;10.90;;
50803;SDS011;37205;51.434;6.756;2022-08-19T12:33:12;10.60;;;8.18;;
50803;SDS011;37205;51.434;6.756;2022-08-19T12:35:39;15.10;;;8.93;;
50803;SDS011;37205;51.434;6.756;2022-08-19T12:38:07;10.32;;;8.27;;
50803;SDS011;37205;51.434;6.756;2022-08-19T12:40:33;14.20;;;8.43;;
50803;SDS011;37205;51.434;6.756;2022-08-19T12:42:58;10.18;;;7.97;;
50803;SDS011;37205;51.434;6.756;2022-08-19T12:45:24;8.98;;;7.18;;
50803;SDS011;37205;51.434;6.756;2022-08-19T12:47:49;9.07;;;7.40;;
50803;SDS011;37205;51.434;6.756;2022-08-19T12:50:18;8.90;;;6.95;;
50803;SDS011;37205;51.434;6.756;2022-08-19T12:52:44;12.48;;;6.80;;
50803;SDS011;37205;51.434;6.756;2022-08-19T12:55:10;11.23;;;7.25;;
50803;SDS011;37205;51.434;6.756;2022-08-19T12:57:36;8.05;;;6.50;;
50803;SDS011;37205;51.434;6.756;2022-08-19T13:00:04;7.00;;;5.10;;
50803;SDS011;37205;51.434;6.756;2022-08-19T13:02:42;8.30;;;5.53;;
50803;SDS011;37205;51.434;6.756;2022-08-19T13:05:10;8.02;;;5.35;;
50803;SDS011;37205;51.434;6.756;2022-08-19T13:07:39;9.93;;;5.55;;
50803;SDS011;37205;51.434;6.756;2022-08-19T13:10:06;7.53;;;6.07;;
50803;SDS011;37205;51.434;6.756;2022-08-19T13:12:33;7.13;;;5.93;;
50803;SDS011;37205;51.434;6.756;2022-08-19T13:14:58;8.18;;;5.80;;
50803;SDS011;37205;51.434;6.756;2022-08-19T13:17:24;6.95;;;6.10;;
50803;SDS011;37205;51.434;6.756;2022-08-19T13:19:50;14.13;;;7.07;;
50803;SDS011;37205;51.434;6.756;2022-08-19T13:22:15;6.40;;;5.45;;
50803;SDS011;37205;51.434;6.756;2022-08-19T13:24:42;7.80;;;6.38;;
50803;SDS011;37205;51.434;6.756;2022-08-19T13:27:07;8.77;;;5.65;;
50803;SDS011;37205;51.434;6.756;2022-08-19T13:29:33;8.77;;;5.68;;
50803;SDS011;37205;51.434;6.756;2022-08-19T13:32:17;8.65;;;5.53;;
50803;SDS011;37205;51.434;6.756;2022-08-19T13:35:02;9.93;;;6.35;;
50803;SDS011;37205;51.434;6.756;2022-08-19T13:37:28;7.28;;;6.22;;
50803;SDS011;37205;51.434;6.756;2022-08-19T13:40:06;7.63;;;5.95;;
50803;SDS011;37205;51.434;6.756;2022-08-19T13:42:41;7.50;;;6.80;;
50803;SDS011;37205;51.434;6.756;2022-08-19T13:45:08;7.20;;;6.50;;
50803;SDS011;37205;51.434;6.756;2022-08-19T13:47:35;8.45;;;6.15;;
50803;SDS011;37205;51.434;6.756;2022-08-19T13:50:08;10.40;;;6.75;;
50803;SDS011;37205;51.434;6.756;2022-08-19T13:52:36;7.55;;;6.55;;
50803;SDS011;37205;51.434;6.756;2022-08-19T13:55:02;9.73;;;6.55;;
50803;SDS011;37205;51.434;6.756;2022-08-19T13:57:29;10.73;;;7.40;;
50803;SDS011;37205;51.434;6.756;2022-08-19T13:59:55;10.13;;;6.90;;
50803;SDS011;37205;51.434;6.756;2022-08-19T14:02:23;13.18;;;7.13;;
50803;SDS011;37205;51.434;6.756;2022-08-19T14:04:49;8.85;;;6.88;;
50803;SDS011;37205;51.434;6.756;2022-08-19T14:07:14;9.43;;;7.95;;
50803;SDS011;37205;51.434;6.756;2022-08-19T14:09:40;9.43;;;7.35;;
50803;SDS011;37205;51.434;6.756;2022-08-19T14:12:06;8.02;;;6.20;;
50803;SDS011;37205;51.434;6.756;2022-08-19T14:14:35;11.10;;;7.07;;
50803;SDS011;37205;51.434;6.756;2022-08-19T14:17:05;7.07;;;6.15;;
50803;SDS011;37205;51.434;6.756;2022-08-19T14:19:31;10.57;;;6.35;;
50803;SDS011;37205;51.434;6.756;2022-08-19T14:21:57;7.95;;;6.68;;
50803;SDS011;37205;51.434;6.756;2022-08-19T14:24:22;8.90;;;7.97;;
50803;SDS011;37205;51.434;6.756;2022-08-19T14:26:48;10.88;;;6.80;;
50803;SDS011;37205;51.434;6.756;2022-08-19T14:29:14;7.88;;;6.63;;
50803;SDS011;37205;51.434;6.756;2022-08-19T14:31:39;8.13;;;5.57;;
50803;SDS011;37205;51.434;6.756;2022-08-19T14:34:05;7.97;;;5.85;;
50803;SDS011;37205;51.434;6.756;2022-08-19T14:36:31;6.90;;;4.95;;
50803;SDS011;37205;51.434;6.756;2022-08-19T14:38:59;10.02;;;5.38;;
50803;SDS011;37205;51.434;6.756;2022-08-19T14:41:25;8.52;;;5.40;;